Terminal Aerodrome Forecast
Issued by NWS Mt. Holly, NJ

Home | Current Version | Previous Version | Text Only | Print | Product List | Glossary On
Versions: 1 2 3 4 5 6 7 8 9 10 11 12 13 14 15 16 17 18 19 20
425
FTUS41 KPHI 240520
TAFACY
TAF
KACY 240520Z 2406/2506 21005KT P6SM SCT040 WS020/23045KT
     FM240900 21007KT 4SM -SHRA OVC035
      TEMPO 2410/2412 2SM SHRA OVC025
     FM241400 28012KT P6SM SCT030 BKN060
     FM241600 29012G22KT P6SM SCT030
     FM242100 27012G22KT P6SM SKC=

USA.gov is the U.S. government's official web portal to all federal, state and local government web resources and services.